ěÝzenÝ letovÚho provozu ╚eskÚ republiky
Letiste: LKCV Aktualizace: 17.04.2021 19:28:25  UTC
 METAR LKCV 17.04. 19:30 ...
METAR LKCV 171930Z 25003KT 9999 OVC026 04/02 Q1020 NOSIG RMK BLU BLU=
 TAF LKCV 17.04. 17:00 ...
TAF LKCV 171700Z 1718/1818 31004KT 9999 BKN020      TEMPO 1718/1809 5000 BR BKN010      PROB40 TEMPO 1722/1807 3000 DZ BR BKN007 OVC012      PROB40 TEMPO 1810/1818 7000 SHRA BKN015=